Time;durP1;ratioP1;P1;durP2;ratioP2;P2;SDS_P1;SDS_P2;PMS_P1;PMS_P2;Temp;Humidity;BMP_temperature;BMP_pressure;BME280_temperature;BME280_humidity;BME280_pressure;Samples;Min_cycle;Max_cycle;Signal;HPM_P1;HPM_P2
2021/12/26 00:12:00;;;;;;;33.03;13.07;;;;;;;0.45;100.00;99871.84;30885573;28;19929;-77
2021/12/26 00:27:02;;;;;;;22.13;11.00;;;;;;;0.54;100.00;99888.38;30887557;28;20038;-75
2021/12/26 00:42:05;;;;;;;21.93;9.83;;;;;;;0.49;100.00;99898.59;30891640;28;20053;-76
2021/12/26 00:57:06;;;;;;;20.70;10.33;;;;;;;0.56;100.00;99893.38;30882250;28;20039;-77
2021/12/26 01:12:13;;;;;;;25.20;9.00;;;;;;;0.49;100.00;99893.25;30868335;28;20062;-78
2021/12/26 01:27:15;;;;;;;18.67;8.90;;;;;;;0.57;100.00;99910.94;30884701;28;20049;-77
2021/12/26 01:42:17;;;;;;;21.27;8.40;;;;;;;0.51;100.00;99907.00;30880573;28;20046;-77
2021/12/26 01:57:19;;;;;;;20.97;8.70;;;;;;;0.41;100.00;99920.97;30874366;28;20130;-77
2021/12/26 02:12:21;;;;;;;18.23;8.17;;;;;;;0.41;100.00;99868.31;30871640;28;20054;-79
2021/12/26 02:27:32;;;;;;;17.53;8.03;;;;;;;0.41;100.00;99921.75;30876348;28;20130;-76
2021/12/26 02:42:34;;;;;;;14.27;7.30;;;;;;;0.44;100.00;99966.44;30876536;28;20054;-77
2021/12/26 02:57:36;;;;;;;11.13;6.73;;;;;;;0.39;100.00;99968.63;30876567;28;20134;-79
2021/12/26 03:12:42;;;;;;;16.17;6.67;;;;;;;0.34;100.00;99941.06;30878272;28;20817;-78
2021/12/26 03:27:44;;;;;;;14.83;7.23;;;;;;;0.33;100.00;99933.41;30887072;28;20051;-77
2021/12/26 03:42:46;;;;;;;21.17;9.07;;;;;;;0.39;100.00;99947.25;30895829;28;20043;-78
2021/12/26 03:58:08;;;;;;;21.50;9.20;;;;;;;0.41;100.00;99940.44;30898314;28;20495;-79
2021/12/26 04:13:11;;;;;;;13.23;6.73;;;;;;;0.25;100.00;99953.84;30892500;28;20728;-78
2021/12/26 04:28:17;;;;;;;8.90;4.83;;;;;;;-0.08;100.00;99966.91;30886398;28;21159;-79
2021/12/26 04:43:23;;;;;;;6.57;3.75;;;;;;;-0.13;100.00;100001.88;30890962;28;20051;-76
2021/12/26 04:58:25;;;;;;;7.32;3.95;;;;;;;-0.26;100.00;100019.13;30885320;28;20043;-75
2021/12/26 05:13:27;;;;;;;7.30;4.23;;;;;;;-0.43;100.00;100057.59;30879244;28;20054;-75
2021/12/26 05:28:28;;;;;;;4.87;2.93;;;;;;;-0.28;100.00;100069.38;30875433;28;20039;-75
2021/12/26 05:43:31;;;;;;;8.50;3.90;;;;;;;-0.30;100.00;100085.75;30873998;28;20050;-76
2021/12/26 05:58:33;;;;;;;9.57;4.90;;;;;;;-0.27;100.00;100097.63;30873380;28;20584;-76
2021/12/26 06:13:34;;;;;;;6.50;3.63;;;;;;;-0.37;100.00;100136.25;30872335;28;20055;-76
2021/12/26 06:28:36;;;;;;;12.13;4.30;;;;;;;-0.36;100.00;100199.91;30871146;28;20055;-76
2021/12/26 06:43:39;;;;;;;4.47;2.90;;;;;;;-0.39;100.00;100235.28;30870774;28;20049;-77
2021/12/26 06:58:41;;;;;;;5.40;3.07;;;;;;;-0.41;100.00;100215.38;30872126;28;20042;-76
2021/12/26 07:13:43;;;;;;;14.60;6.23;;;;;;;-0.14;100.00;100229.81;30866868;28;20143;-76
2021/12/26 07:28:45;;;;;;;25.57;10.07;;;;;;;0.17;100.00;100224.50;30866474;28;20496;-78
2021/12/26 07:43:47;;;;;;;23.87;10.43;;;;;;;0.53;100.00;100238.66;30868094;28;20053;-78
2021/12/26 07:58:49;;;;;;;18.90;10.03;;;;;;;0.60;100.00;100246.84;30878828;28;20130;-78
2021/12/26 08:13:51;;;;;;;27.37;10.97;;;;;;;0.27;100.00;100288.03;30870803;28;20150;-77
2021/12/26 08:28:53;;;;;;;25.93;10.80;;;;;;;0.10;100.00;100292.94;30884254;28;20440;-78
2021/12/26 08:43:55;;;;;;;23.00;11.47;;;;;;;0.00;99.74;100299.56;30893012;28;20137;-77
2021/12/26 08:58:57;;;;;;;25.60;12.13;;;;;;;-0.26;99.91;100312.59;30883480;28;20061;-77
2021/12/26 09:13:59;;;;;;;31.97;12.63;;;;;;;-0.20;99.79;100316.53;30891964;28;20059;-76
2021/12/26 09:29:01;;;;;;;23.03;10.77;;;;;;;-0.38;97.29;100322.19;30886731;28;20062;-75
2021/12/26 09:44:03;;;;;;;21.97;10.23;;;;;;;-0.54;96.05;100305.34;30864648;28;20055;-79
2021/12/26 09:59:13;;;;;;;18.83;8.00;;;;;;;-0.57;93.58;100298.03;30879576;28;20047;-78
2021/12/26 10:14:17;;;;;;;18.00;8.53;;;;;;;-0.46;92.69;100298.31;30856723;28;20063;-77
2021/12/26 10:29:33;;;;;;;18.47;8.50;;;;;;;-0.41;90.42;100301.50;30852517;28;20051;-78
2021/12/26 10:44:41;;;;;;;21.83;8.03;;;;;;;-0.30;89.98;100301.03;30872375;28;20054;-78
2021/12/26 10:59:44;;;;;;;21.27;8.20;;;;;;;-0.43;90.10;100319.75;30880535;28;20415;-78
2021/12/26 11:14:58;;;;;;;22.10;8.87;;;;;;;-0.49;90.46;100331.78;30872562;28;20058;-77
2021/12/26 11:30:00;;;;;;;20.00;8.90;;;;;;;-0.57;90.25;100346.03;30872206;28;20102;-78
2021/12/26 11:45:20;;;;;;;22.13;8.80;;;;;;;-0.73;90.73;100366.50;30912584;28;20055;-78
2021/12/26 12:00:28;;;;;;;19.90;10.03;;;;;;;-0.95;91.45;100383.75;30880934;28;20145;-77
2021/12/26 12:15:44;;;;;;;20.47;9.63;;;;;;;-1.10;92.09;100390.50;30886811;28;20069;-78
2021/12/26 12:30:51;;;;;;;18.17;10.13;;;;;;;-1.14;92.17;100397.59;30882898;28;20054;-78
2021/12/26 12:45:58;;;;;;;19.03;9.47;;;;;;;-1.30;94.05;100402.03;30881193;28;20063;-79
2021/12/26 13:01:05;;;;;;;20.57;11.17;;;;;;;-1.56;94.23;100418.28;30900945;28;20103;-80
2021/12/26 13:16:08;;;;;;;23.27;9.23;;;;;;;-1.77;93.46;100420.22;30880625;28;20059;-79
2021/12/26 13:31:14;;;;;;;27.60;12.60;;;;;;;-1.95;93.23;100432.91;30890507;28;20456;-81
2021/12/26 13:46:21;;;;;;;30.55;12.63;;;;;;;-2.21;93.06;100450.94;30898287;28;20138;-80
2021/12/26 14:01:24;;;;;;;34.93;16.73;;;;;;;-2.42;92.98;100488.16;30866718;28;20504;-79
2021/12/26 14:16:30;;;;;;;30.20;14.67;;;;;;;-2.63;93.60;100488.09;30883578;28;20062;-80
2021/12/26 14:31:43;;;;;;;34.30;16.15;;;;;;;-2.72;93.06;100507.81;30881162;28;20512;-79
2021/12/26 14:46:47;;;;;;;34.43;15.80;;;;;;;-2.92;93.56;100511.97;30906810;28;20054;-79
2021/12/26 15:02:06;;;;;;;29.37;14.70;;;;;;;-2.99;92.87;100528.38;30904846;28;20055;-78
2021/12/26 15:17:19;;;;;;;36.33;17.93;;;;;;;-3.10;92.98;100541.25;30880073;28;20206;-87
2021/12/26 15:32:33;;;;;;;32.53;13.63;;;;;;;-3.11;92.16;100541.56;30937063;28;20047;-90
2021/12/26 15:47:35;;;;;;;20.13;11.00;;;;;;;-3.10;90.99;100532.50;30861944;28;20087;-85
2021/12/26 16:02:37;;;;;;;23.07;10.33;;;;;;;-3.19;89.92;100532.50;30904488;28;20444;-84
2021/12/26 16:17:40;;;;;;;31.30;13.87;;;;;;;-3.16;90.43;100547.81;30925921;28;20102;-85
2021/12/26 16:32:43;;;;;;;19.37;9.43;;;;;;;-3.17;89.78;100559.53;30920164;28;20524;-84
2021/12/26 16:47:48;;;;;;;15.50;8.53;;;;;;;-3.08;90.69;100564.03;30905937;28;20408;-86
2021/12/26 17:02:50;;;;;;;16.47;9.37;;;;;;;-3.01;90.06;100583.69;30905249;28;20061;-85
2021/12/26 17:17:52;;;;;;;21.77;10.17;;;;;;;-3.14;89.77;100595.28;30941832;28;20074;-85
2021/12/26 17:32:54;;;;;;;34.27;13.53;;;;;;;-3.21;90.37;100603.72;30899202;28;20145;-84
2021/12/26 17:47:56;;;;;;;25.63;13.50;;;;;;;-3.27;90.13;100607.63;30891471;28;20085;-86
2021/12/26 18:02:58;;;;;;;25.33;13.20;;;;;;;-3.29;91.42;100620.44;30864986;28;20065;-85
2021/12/26 18:18:01;;;;;;;27.53;15.90;;;;;;;-3.32;90.02;100623.75;30896793;28;20089;-87
2021/12/26 18:33:03;;;;;;;48.33;23.20;;;;;;;-3.29;89.13;100644.31;30890130;28;20173;-82
2021/12/26 18:48:05;;;;;;;39.30;18.67;;;;;;;-3.38;90.92;100638.25;30911429;28;20090;-84
2021/12/26 19:03:08;;;;;;;31.93;18.13;;;;;;;-3.36;90.08;100657.31;30878928;28;20461;-85
2021/12/26 19:18:10;;;;;;;50.40;19.87;;;;;;;-3.55;89.42;100670.09;30897876;28;20141;-88
2021/12/26 19:33:14;;;;;;;34.50;16.33;;;;;;;-3.64;88.90;100661.31;30924643;28;20138;-84
2021/12/26 19:48:23;;;;;;;38.67;16.37;;;;;;;-3.71;88.73;100666.28;30900007;28;20133;-83
2021/12/26 20:03:29;;;;;;;31.87;14.77;;;;;;;-3.71;88.89;100677.69;30880250;28;20420;-85
2021/12/26 20:18:31;;;;;;;;;;;;;;;-3.85;87.27;100707.00;30881835;28;20137;-81
2021/12/26 20:33:33;;;;;;;43.97;18.67;;;;;;;-3.84;88.43;100691.84;30891585;28;19926;-81
2021/12/26 20:48:35;;;;;;;16.70;9.07;;;;;;;-3.92;85.87;100730.53;30880196;28;20061;-80
2021/12/26 21:03:38;;;;;;;14.77;7.87;;;;;;;-3.94;87.20;100732.69;30884096;28;20074;-79
2021/12/26 21:18:41;;;;;;;20.17;9.43;;;;;;;-4.04;87.63;100754.19;30872792;28;20165;-79
2021/12/26 21:33:43;;;;;;;23.80;9.63;;;;;;;-4.01;89.32;100766.03;30878642;28;20484;-80
2021/12/26 21:48:46;;;;;;;13.20;7.70;;;;;;;-4.03;89.77;100758.41;30862195;28;20051;-78
2021/12/26 22:03:48;;;;;;;13.13;8.17;;;;;;;-4.07;89.01;100754.00;30847264;28;20086;-79
2021/12/26 22:18:50;;;;;;;10.20;6.30;;;;;;;-4.15;89.06;100764.25;30848400;28;20538;-79
2021/12/26 22:33:52;;;;;;;9.57;6.13;;;;;;;-4.08;89.85;100769.13;30852550;28;20127;-79
2021/12/26 22:48:54;;;;;;;13.63;7.20;;;;;;;-4.01;89.13;100764.16;30837924;28;20145;-79
2021/12/26 23:03:56;;;;;;;12.80;6.57;;;;;;;-3.97;88.28;100789.00;30856517;28;20059;-80
2021/12/26 23:18:58;;;;;;;12.77;8.33;;;;;;;-3.99;88.77;100793.81;30837580;28;20404;-78
2021/12/26 23:34:02;;;;;;;19.77;9.37;;;;;;;-4.10;88.30;100816.38;30872102;28;20031;-79
2021/12/26 23:49:04;;;;;;;14.77;8.57;;;;;;;-4.30;88.59;100835.44;30904842;28;20134;-79
